sensor_id;sensor_type;location;lat;lon;timestamp;temperature;humidity
9466;DHT22;4771;48.726;9.006;2023-11-18T00:00:39;6.90;99.90
9466;DHT22;4771;48.726;9.006;2023-11-18T00:03:06;6.90;99.90
9466;DHT22;4771;48.726;9.006;2023-11-18T00:05:33;6.90;99.90
9466;DHT22;4771;48.726;9.006;2023-11-18T00:08:00;6.90;99.90
9466;DHT22;4771;48.726;9.006;2023-11-18T00:10:28;6.90;99.90
9466;DHT22;4771;48.726;9.006;2023-11-18T00:12:55;6.90;99.90
9466;DHT22;4771;48.726;9.006;2023-11-18T00:15:22;6.90;99.90
9466;DHT22;4771;48.726;9.006;2023-11-18T00:17:49;6.90;99.90
9466;DHT22;4771;48.726;9.006;2023-11-18T00:20:16;6.90;99.90
9466;DHT22;4771;48.726;9.006;2023-11-18T00:22:44;6.90;99.90
9466;DHT22;4771;48.726;9.006;2023-11-18T00:25:11;6.90;99.90
9466;DHT22;4771;48.726;9.006;2023-11-18T00:27:41;6.90;99.90
9466;DHT22;4771;48.726;9.006;2023-11-18T00:30:09;6.80;99.90
9466;DHT22;4771;48.726;9.006;2023-11-18T00:32:36;6.90;99.90
9466;DHT22;4771;48.726;9.006;2023-11-18T00:35:04;6.90;99.90
9466;DHT22;4771;48.726;9.006;2023-11-18T00:37:31;7.00;99.90
9466;DHT22;4771;48.726;9.006;2023-11-18T00:39:59;6.90;99.90
9466;DHT22;4771;48.726;9.006;2023-11-18T00:42:25;6.90;99.90
9466;DHT22;4771;48.726;9.006;2023-11-18T00:44:54;6.90;99.90
9466;DHT22;4771;48.726;9.006;2023-11-18T00:47:21;6.90;99.90
9466;DHT22;4771;48.726;9.006;2023-11-18T00:49:49;6.90;99.90
9466;DHT22;4771;48.726;9.006;2023-11-18T00:52:17;6.90;99.90
9466;DHT22;4771;48.726;9.006;2023-11-18T00:54:45;6.90;99.90
9466;DHT22;4771;48.726;9.006;2023-11-18T00:57:12;6.90;99.90
9466;DHT22;4771;48.726;9.006;2023-11-18T00:59:41;6.90;99.90
9466;DHT22;4771;48.726;9.006;2023-11-18T01:02:10;6.90;99.90
9466;DHT22;4771;48.726;9.006;2023-11-18T01:04:37;6.90;99.90
9466;DHT22;4771;48.726;9.006;2023-11-18T01:07:04;6.90;99.90
9466;DHT22;4771;48.726;9.006;2023-11-18T01:09:31;6.90;99.90
9466;DHT22;4771;48.726;9.006;2023-11-18T01:12:05;6.90;99.90
9466;DHT22;4771;48.726;9.006;2023-11-18T01:14:35;6.90;99.90
9466;DHT22;4771;48.726;9.006;2023-11-18T01:17:03;6.90;99.90
9466;DHT22;4771;48.726;9.006;2023-11-18T01:19:31;6.90;99.90
9466;DHT22;4771;48.726;9.006;2023-11-18T01:21:59;6.90;99.90
9466;DHT22;4771;48.726;9.006;2023-11-18T01:24:26;6.90;99.90
9466;DHT22;4771;48.726;9.006;2023-11-18T01:26:53;6.90;99.90
9466;DHT22;4771;48.726;9.006;2023-11-18T01:29:20;6.90;99.90
9466;DHT22;4771;48.726;9.006;2023-11-18T01:31:47;6.90;99.90
9466;DHT22;4771;48.726;9.006;2023-11-18T01:34:14;6.90;99.90
9466;DHT22;4771;48.726;9.006;2023-11-18T01:36:44;6.90;99.90
9466;DHT22;4771;48.726;9.006;2023-11-18T01:39:10;6.90;99.90
9466;DHT22;4771;48.726;9.006;2023-11-18T01:41:38;7.00;99.90
9466;DHT22;4771;48.726;9.006;2023-11-18T01:44:05;6.90;99.90
9466;DHT22;4771;48.726;9.006;2023-11-18T01:46:34;6.90;99.90
9466;DHT22;4771;48.726;9.006;2023-11-18T01:49:02;7.00;99.90
9466;DHT22;4771;48.726;9.006;2023-11-18T01:51:29;7.00;99.90
9466;DHT22;4771;48.726;9.006;2023-11-18T01:53:59;6.90;99.90
9466;DHT22;4771;48.726;9.006;2023-11-18T01:56:28;6.90;99.90
9466;DHT22;4771;48.726;9.006;2023-11-18T01:58:55;6.90;99.90
9466;DHT22;4771;48.726;9.006;2023-11-18T02:01:25;6.90;99.90
9466;DHT22;4771;48.726;9.006;2023-11-18T02:03:52;6.90;99.90
9466;DHT22;4771;48.726;9.006;2023-11-18T02:06:19;6.90;99.90
9466;DHT22;4771;48.726;9.006;2023-11-18T02:08:47;6.90;99.90
9466;DHT22;4771;48.726;9.006;2023-11-18T02:11:20;6.90;99.90
9466;DHT22;4771;48.726;9.006;2023-11-18T02:13:53;6.90;99.90
9466;DHT22;4771;48.726;9.006;2023-11-18T02:16:22;6.90;99.90
9466;DHT22;4771;48.726;9.006;2023-11-18T02:18:51;6.90;99.90
9466;DHT22;4771;48.726;9.006;2023-11-18T02:21:19;6.90;99.90
9466;DHT22;4771;48.726;9.006;2023-11-18T02:23:48;6.90;99.90
9466;DHT22;4771;48.726;9.006;2023-11-18T02:26:22;6.90;99.90
9466;DHT22;4771;48.726;9.006;2023-11-18T02:28:49;6.90;99.90
9466;DHT22;4771;48.726;9.006;2023-11-18T02:31:22;6.90;99.90
9466;DHT22;4771;48.726;9.006;2023-11-18T02:33:57;7.00;99.90
9466;DHT22;4771;48.726;9.006;2023-11-18T02:36:31;7.00;99.90
9466;DHT22;4771;48.726;9.006;2023-11-18T02:39:05;6.90;99.90
9466;DHT22;4771;48.726;9.006;2023-11-18T02:41:35;6.90;99.90
9466;DHT22;4771;48.726;9.006;2023-11-18T02:44:05;6.90;99.90
9466;DHT22;4771;48.726;9.006;2023-11-18T02:46:36;6.90;99.90
9466;DHT22;4771;48.726;9.006;2023-11-18T02:49:03;6.90;99.90
9466;DHT22;4771;48.726;9.006;2023-11-18T02:51:30;6.80;99.90
9466;DHT22;4771;48.726;9.006;2023-11-18T02:53:59;6.80;99.90
9466;DHT22;4771;48.726;9.006;2023-11-18T02:56:26;6.80;99.90
9466;DHT22;4771;48.726;9.006;2023-11-18T02:58:54;6.80;99.90
9466;DHT22;4771;48.726;9.006;2023-11-18T03:01:21;6.70;99.90
9466;DHT22;4771;48.726;9.006;2023-11-18T03:03:48;6.80;99.90
9466;DHT22;4771;48.726;9.006;2023-11-18T03:06:15;6.70;99.90
9466;DHT22;4771;48.726;9.006;2023-11-18T03:08:42;6.70;99.90
9466;DHT22;4771;48.726;9.006;2023-11-18T03:11:09;6.60;99.90
9466;DHT22;4771;48.726;9.006;2023-11-18T03:13:37;6.60;99.90
9466;DHT22;4771;48.726;9.006;2023-11-18T03:16:08;6.60;99.90
9466;DHT22;4771;48.726;9.006;2023-11-18T03:18:38;6.50;99.90
9466;DHT22;4771;48.726;9.006;2023-11-18T03:21:06;6.50;99.90
9466;DHT22;4771;48.726;9.006;2023-11-18T03:23:33;6.50;99.90
9466;DHT22;4771;48.726;9.006;2023-11-18T03:26:00;6.50;99.90
9466;DHT22;4771;48.726;9.006;2023-11-18T03:28:27;6.50;99.90
9466;DHT22;4771;48.726;9.006;2023-11-18T03:30:54;6.50;99.90
9466;DHT22;4771;48.726;9.006;2023-11-18T03:33:22;6.50;99.90
9466;DHT22;4771;48.726;9.006;2023-11-18T03:35:49;6.60;99.90
9466;DHT22;4771;48.726;9.006;2023-11-18T03:38:16;6.50;99.90
9466;DHT22;4771;48.726;9.006;2023-11-18T03:40:43;6.50;99.90
9466;DHT22;4771;48.726;9.006;2023-11-18T03:43:12;6.40;99.90
9466;DHT22;4771;48.726;9.006;2023-11-18T03:45:39;6.40;99.90
9466;DHT22;4771;48.726;9.006;2023-11-18T03:48:06;6.40;99.90
9466;DHT22;4771;48.726;9.006;2023-11-18T03:50:34;6.40;99.90
9466;DHT22;4771;48.726;9.006;2023-11-18T03:53:01;6.40;99.90
9466;DHT22;4771;48.726;9.006;2023-11-18T03:55:29;6.40;99.90
9466;DHT22;4771;48.726;9.006;2023-11-18T03:57:56;6.30;99.90
9466;DHT22;4771;48.726;9.006;2023-11-18T04:00:23;6.20;99.90
9466;DHT22;4771;48.726;9.006;2023-11-18T04:02:55;6.20;99.90
9466;DHT22;4771;48.726;9.006;2023-11-18T04:05:22;6.10;99.90
9466;DHT22;4771;48.726;9.006;2023-11-18T04:07:50;6.10;99.90
9466;DHT22;4771;48.726;9.006;2023-11-18T04:10:17;6.10;99.90
9466;DHT22;4771;48.726;9.006;2023-11-18T04:12:46;6.10;99.90
9466;DHT22;4771;48.726;9.006;2023-11-18T04:15:14;6.10;99.90
9466;DHT22;4771;48.726;9.006;2023-11-18T04:17:41;6.10;99.90
9466;DHT22;4771;48.726;9.006;2023-11-18T04:20:10;6.00;99.90
9466;DHT22;4771;48.726;9.006;2023-11-18T04:22:39;6.00;99.90
9466;DHT22;4771;48.726;9.006;2023-11-18T04:25:08;6.00;99.90
9466;DHT22;4771;48.726;9.006;2023-11-18T04:27:35;6.00;99.90
9466;DHT22;4771;48.726;9.006;2023-11-18T04:30:03;6.00;99.90
9466;DHT22;4771;48.726;9.006;2023-11-18T04:32:30;6.00;99.90
9466;DHT22;4771;48.726;9.006;2023-11-18T04:34:58;6.00;99.90
9466;DHT22;4771;48.726;9.006;2023-11-18T04:37:32;6.00;99.90
9466;DHT22;4771;48.726;9.006;2023-11-18T04:39:59;6.00;99.90
9466;DHT22;4771;48.726;9.006;2023-11-18T04:42:27;6.00;99.90
9466;DHT22;4771;48.726;9.006;2023-11-18T04:44:55;6.00;99.90
9466;DHT22;4771;48.726;9.006;2023-11-18T04:47:22;6.10;99.90
9466;DHT22;4771;48.726;9.006;2023-11-18T04:49:50;6.20;99.90
9466;DHT22;4771;48.726;9.006;2023-11-18T04:52:18;6.20;99.90
9466;DHT22;4771;48.726;9.006;2023-11-18T04:54:45;6.20;99.90
9466;DHT22;4771;48.726;9.006;2023-11-18T04:57:13;6.20;99.90
9466;DHT22;4771;48.726;9.006;2023-11-18T04:59:42;6.30;99.90
9466;DHT22;4771;48.726;9.006;2023-11-18T05:02:09;6.30;99.90
9466;DHT22;4771;48.726;9.006;2023-11-18T05:04:36;6.40;99.90
9466;DHT22;4771;48.726;9.006;2023-11-18T05:07:03;6.40;99.90
9466;DHT22;4771;48.726;9.006;2023-11-18T05:09:32;6.40;99.90
9466;DHT22;4771;48.726;9.006;2023-11-18T05:12:00;6.40;99.90
9466;DHT22;4771;48.726;9.006;2023-11-18T05:14:27;6.40;99.90
9466;DHT22;4771;48.726;9.006;2023-11-18T05:16:55;6.40;99.90
9466;DHT22;4771;48.726;9.006;2023-11-18T05:19:22;6.50;99.90
9466;DHT22;4771;48.726;9.006;2023-11-18T05:21:50;6.40;99.90
9466;DHT22;4771;48.726;9.006;2023-11-18T05:24:16;6.40;99.90
9466;DHT22;4771;48.726;9.006;2023-11-18T05:26:43;6.50;99.90
9466;DHT22;4771;48.726;9.006;2023-11-18T05:29:10;6.40;99.90
9466;DHT22;4771;48.726;9.006;2023-11-18T05:31:41;6.40;99.90
9466;DHT22;4771;48.726;9.006;2023-11-18T05:34:10;6.40;99.90
9466;DHT22;4771;48.726;9.006;2023-11-18T05:36:38;6.40;99.90
9466;DHT22;4771;48.726;9.006;2023-11-18T05:39:06;6.30;99.90
9466;DHT22;4771;48.726;9.006;2023-11-18T05:41:34;6.40;99.90
9466;DHT22;4771;48.726;9.006;2023-11-18T05:44:05;6.30;99.90
9466;DHT22;4771;48.726;9.006;2023-11-18T05:46:34;6.30;99.90
9466;DHT22;4771;48.726;9.006;2023-11-18T05:49:02;6.30;99.90
9466;DHT22;4771;48.726;9.006;2023-11-18T05:51:34;6.20;99.90
9466;DHT22;4771;48.726;9.006;2023-11-18T05:54:01;6.20;99.90
9466;DHT22;4771;48.726;9.006;2023-11-18T05:56:28;6.20;99.90
9466;DHT22;4771;48.726;9.006;2023-11-18T05:58:55;6.20;99.90
9466;DHT22;4771;48.726;9.006;2023-11-18T06:01:22;6.20;99.90
9466;DHT22;4771;48.726;9.006;2023-11-18T06:03:49;6.10;99.90
9466;DHT22;4771;48.726;9.006;2023-11-18T06:06:17;6.10;99.90
9466;DHT22;4771;48.726;9.006;2023-11-18T06:08:45;6.00;99.90
9466;DHT22;4771;48.726;9.006;2023-11-18T06:11:14;6.00;99.90
9466;DHT22;4771;48.726;9.006;2023-11-18T06:13:42;5.90;99.90
9466;DHT22;4771;48.726;9.006;2023-11-18T06:16:12;5.90;99.90
9466;DHT22;4771;48.726;9.006;2023-11-18T06:18:41;5.90;99.90
9466;DHT22;4771;48.726;9.006;2023-11-18T06:21:13;5.90;99.90
9466;DHT22;4771;48.726;9.006;2023-11-18T06:23:40;5.80;99.90
9466;DHT22;4771;48.726;9.006;2023-11-18T06:26:09;5.80;99.90
9466;DHT22;4771;48.726;9.006;2023-11-18T06:28:38;5.80;99.90
9466;DHT22;4771;48.726;9.006;2023-11-18T06:31:05;5.80;99.90
9466;DHT22;4771;48.726;9.006;2023-11-18T06:33:36;5.80;99.90
9466;DHT22;4771;48.726;9.006;2023-11-18T06:36:06;5.70;99.90
9466;DHT22;4771;48.726;9.006;2023-11-18T06:38:33;5.70;99.90
9466;DHT22;4771;48.726;9.006;2023-11-18T06:41:01;5.70;99.90
9466;DHT22;4771;48.726;9.006;2023-11-18T06:43:30;5.70;99.90
9466;DHT22;4771;48.726;9.006;2023-11-18T06:46:11;5.70;99.90
9466;DHT22;4771;48.726;9.006;2023-11-18T06:48:39;5.70;99.90
9466;DHT22;4771;48.726;9.006;2023-11-18T06:51:06;5.70;99.90
9466;DHT22;4771;48.726;9.006;2023-11-18T06:53:34;5.70;99.90
9466;DHT22;4771;48.726;9.006;2023-11-18T06:56:01;5.80;99.90
9466;DHT22;4771;48.726;9.006;2023-11-18T06:58:29;5.80;99.90
9466;DHT22;4771;48.726;9.006;2023-11-18T07:00:56;5.90;99.90
9466;DHT22;4771;48.726;9.006;2023-11-18T07:03:23;5.90;99.90
9466;DHT22;4771;48.726;9.006;2023-11-18T07:05:50;5.90;99.90
9466;DHT22;4771;48.726;9.006;2023-11-18T07:08:17;5.90;99.90
9466;DHT22;4771;48.726;9.006;2023-11-18T07:10:44;5.90;99.90
9466;DHT22;4771;48.726;9.006;2023-11-18T07:13:12;6.00;99.90
9466;DHT22;4771;48.726;9.006;2023-11-18T07:15:40;6.00;99.90
9466;DHT22;4771;48.726;9.006;2023-11-18T07:18:07;6.00;99.90
9466;DHT22;4771;48.726;9.006;2023-11-18T07:20:35;6.10;99.90
9466;DHT22;4771;48.726;9.006;2023-11-18T07:23:02;6.10;99.90
9466;DHT22;4771;48.726;9.006;2023-11-18T07:25:29;6.10;99.90
9466;DHT22;4771;48.726;9.006;2023-11-18T07:27:56;6.10;99.90
9466;DHT22;4771;48.726;9.006;2023-11-18T07:30:23;6.20;99.90
9466;DHT22;4771;48.726;9.006;2023-11-18T07:32:52;6.20;99.90
9466;DHT22;4771;48.726;9.006;2023-11-18T07:35:19;6.20;99.90
9466;DHT22;4771;48.726;9.006;2023-11-18T07:37:46;6.20;99.90
9466;DHT22;4771;48.726;9.006;2023-11-18T07:40:13;6.30;99.90
9466;DHT22;4771;48.726;9.006;2023-11-18T07:42:47;6.30;99.90
9466;DHT22;4771;48.726;9.006;2023-11-18T07:45:14;6.30;99.90
9466;DHT22;4771;48.726;9.006;2023-11-18T07:47:44;6.30;99.90
9466;DHT22;4771;48.726;9.006;2023-11-18T07:50:12;6.30;99.90
9466;DHT22;4771;48.726;9.006;2023-11-18T07:52:39;6.40;99.90
9466;DHT22;4771;48.726;9.006;2023-11-18T07:55:07;6.40;99.90
9466;DHT22;4771;48.726;9.006;2023-11-18T07:57:39;6.40;99.90
9466;DHT22;4771;48.726;9.006;2023-11-18T08:00:06;6.40;99.90
9466;DHT22;4771;48.726;9.006;2023-11-18T08:02:34;6.40;99.90
9466;DHT22;4771;48.726;9.006;2023-11-18T08:05:02;6.40;99.90
9466;DHT22;4771;48.726;9.006;2023-11-18T08:07:31;6.40;99.90
9466;DHT22;4771;48.726;9.006;2023-11-18T08:09:58;6.40;99.90
9466;DHT22;4771;48.726;9.006;2023-11-18T08:12:27;6.40;99.90
9466;DHT22;4771;48.726;9.006;2023-11-18T08:14:55;6.40;99.90
9466;DHT22;4771;48.726;9.006;2023-11-18T08:17:22;6.50;99.90
9466;DHT22;4771;48.726;9.006;2023-11-18T08:19:51;6.50;99.90
9466;DHT22;4771;48.726;9.006;2023-11-18T08:22:18;6.40;99.90
9466;DHT22;4771;48.726;9.006;2023-11-18T08:24:49;6.50;99.90
9466;DHT22;4771;48.726;9.006;2023-11-18T08:27:16;6.50;99.90
9466;DHT22;4771;48.726;9.006;2023-11-18T08:29:43;6.50;99.90
9466;DHT22;4771;48.726;9.006;2023-11-18T08:32:11;6.50;99.90
9466;DHT22;4771;48.726;9.006;2023-11-18T08:34:38;6.60;99.90
9466;DHT22;4771;48.726;9.006;2023-11-18T08:37:06;6.60;99.90
9466;DHT22;4771;48.726;9.006;2023-11-18T08:39:35;6.60;99.90
9466;DHT22;4771;48.726;9.006;2023-11-18T08:42:04;6.60;99.90
9466;DHT22;4771;48.726;9.006;2023-11-18T08:44:33;6.60;99.90
9466;DHT22;4771;48.726;9.006;2023-11-18T08:47:00;6.60;99.90
9466;DHT22;4771;48.726;9.006;2023-11-18T08:49:31;6.70;99.90
9466;DHT22;4771;48.726;9.006;2023-11-18T08:51:59;6.70;99.90
9466;DHT22;4771;48.726;9.006;2023-11-18T08:54:27;6.70;99.90
9466;DHT22;4771;48.726;9.006;2023-11-18T08:57:04;6.80;99.90
9466;DHT22;4771;48.726;9.006;2023-11-18T08:59:45;6.80;99.90
9466;DHT22;4771;48.726;9.006;2023-11-18T09:02:12;6.90;99.90
9466;DHT22;4771;48.726;9.006;2023-11-18T09:04:41;6.90;99.90
9466;DHT22;4771;48.726;9.006;2023-11-18T09:07:09;6.90;99.90
9466;DHT22;4771;48.726;9.006;2023-11-18T09:09:36;6.90;99.90
9466;DHT22;4771;48.726;9.006;2023-11-18T09:12:07;6.90;99.90
9466;DHT22;4771;48.726;9.006;2023-11-18T09:14:35;7.00;99.90
9466;DHT22;4771;48.726;9.006;2023-11-18T09:17:02;7.00;99.90
9466;DHT22;4771;48.726;9.006;2023-11-18T09:19:32;7.00;99.90
9466;DHT22;4771;48.726;9.006;2023-11-18T09:21:59;7.10;99.90
9466;DHT22;4771;48.726;9.006;2023-11-18T09:24:26;7.10;99.90
9466;DHT22;4771;48.726;9.006;2023-11-18T09:26:53;7.10;99.90
9466;DHT22;4771;48.726;9.006;2023-11-18T09:29:21;7.00;99.90
9466;DHT22;4771;48.726;9.006;2023-11-18T09:31:50;7.10;99.90
9466;DHT22;4771;48.726;9.006;2023-11-18T09:34:18;7.10;99.90
9466;DHT22;4771;48.726;9.006;2023-11-18T09:36:53;7.10;99.90
9466;DHT22;4771;48.726;9.006;2023-11-18T09:39:20;7.20;99.90
9466;DHT22;4771;48.726;9.006;2023-11-18T09:42:06;7.20;99.90
9466;DHT22;4771;48.726;9.006;2023-11-18T09:44:37;7.20;99.90
9466;DHT22;4771;48.726;9.006;2023-11-18T09:47:07;7.30;99.90
9466;DHT22;4771;48.726;9.006;2023-11-18T09:49:40;7.40;99.90
9466;DHT22;4771;48.726;9.006;2023-11-18T09:52:15;7.40;99.90
9466;DHT22;4771;48.726;9.006;2023-11-18T09:54:48;7.50;99.90
9466;DHT22;4771;48.726;9.006;2023-11-18T09:57:23;7.60;99.90
9466;DHT22;4771;48.726;9.006;2023-11-18T10:00:00;7.70;99.90
9466;DHT22;4771;48.726;9.006;2023-11-18T10:02:39;7.70;99.90
9466;DHT22;4771;48.726;9.006;2023-11-18T10:05:07;7.80;99.90
9466;DHT22;4771;48.726;9.006;2023-11-18T10:07:38;7.80;99.90
9466;DHT22;4771;48.726;9.006;2023-11-18T10:10:07;7.90;99.90
9466;DHT22;4771;48.726;9.006;2023-11-18T10:12:40;7.90;99.90
9466;DHT22;4771;48.726;9.006;2023-11-18T10:15:11;8.00;99.90
9466;DHT22;4771;48.726;9.006;2023-11-18T10:17:42;8.00;99.90
9466;DHT22;4771;48.726;9.006;2023-11-18T10:20:21;8.00;99.90
9466;DHT22;4771;48.726;9.006;2023-11-18T10:23:05;8.10;99.90
9466;DHT22;4771;48.726;9.006;2023-11-18T10:25:35;8.10;99.90
9466;DHT22;4771;48.726;9.006;2023-11-18T10:28:06;8.10;99.90
9466;DHT22;4771;48.726;9.006;2023-11-18T10:30:44;8.20;99.90
9466;DHT22;4771;48.726;9.006;2023-11-18T10:33:14;8.30;99.90
9466;DHT22;4771;48.726;9.006;2023-11-18T10:35:49;8.20;99.90
9466;DHT22;4771;48.726;9.006;2023-11-18T10:38:18;8.20;99.90
9466;DHT22;4771;48.726;9.006;2023-11-18T10:40:45;8.30;99.90
9466;DHT22;4771;48.726;9.006;2023-11-18T10:43:17;8.30;99.90
9466;DHT22;4771;48.726;9.006;2023-11-18T10:45:46;8.30;99.90
9466;DHT22;4771;48.726;9.006;2023-11-18T10:48:13;8.30;99.90
9466;DHT22;4771;48.726;9.006;2023-11-18T10:50:44;8.30;99.90
9466;DHT22;4771;48.726;9.006;2023-11-18T10:53:12;8.40;99.90
9466;DHT22;4771;48.726;9.006;2023-11-18T10:55:41;8.40;99.90
9466;DHT22;4771;48.726;9.006;2023-11-18T10:58:08;8.40;99.90
9466;DHT22;4771;48.726;9.006;2023-11-18T11:00:49;8.40;99.90
9466;DHT22;4771;48.726;9.006;2023-11-18T11:03:21;8.50;99.90
9466;DHT22;4771;48.726;9.006;2023-11-18T11:05:49;8.40;99.90
9466;DHT22;4771;48.726;9.006;2023-11-18T11:08:16;8.50;99.90
9466;DHT22;4771;48.726;9.006;2023-11-18T11:10:44;8.40;99.90
9466;DHT22;4771;48.726;9.006;2023-11-18T11:13:11;8.40;99.90
9466;DHT22;4771;48.726;9.006;2023-11-18T11:15:42;8.50;99.90
9466;DHT22;4771;48.726;9.006;2023-11-18T11:18:12;8.50;99.90
9466;DHT22;4771;48.726;9.006;2023-11-18T11:20:57;8.40;99.90
9466;DHT22;4771;48.726;9.006;2023-11-18T11:23:35;8.40;99.90
9466;DHT22;4771;48.726;9.006;2023-11-18T11:26:23;8.40;99.90
9466;DHT22;4771;48.726;9.006;2023-11-18T11:29:02;8.40;99.90
9466;DHT22;4771;48.726;9.006;2023-11-18T11:31:37;8.40;99.90
9466;DHT22;4771;48.726;9.006;2023-11-18T11:34:09;8.50;99.90
9466;DHT22;4771;48.726;9.006;2023-11-18T11:36:43;8.50;99.90
9466;DHT22;4771;48.726;9.006;2023-11-18T11:39:13;8.50;99.90
9466;DHT22;4771;48.726;9.006;2023-11-18T11:41:44;8.40;99.90
9466;DHT22;4771;48.726;9.006;2023-11-18T11:44:13;8.40;99.90
9466;DHT22;4771;48.726;9.006;2023-11-18T11:46:41;8.50;99.90
9466;DHT22;4771;48.726;9.006;2023-11-18T11:49:10;8.50;99.90
9466;DHT22;4771;48.726;9.006;2023-11-18T11:51:48;8.50;99.90
9466;DHT22;4771;48.726;9.006;2023-11-18T11:54:20;8.50;99.90
9466;DHT22;4771;48.726;9.006;2023-11-18T11:56:51;8.50;99.90
9466;DHT22;4771;48.726;9.006;2023-11-18T11:59:35;8.50;99.90
9466;DHT22;4771;48.726;9.006;2023-11-18T12:02:04;8.50;99.90
9466;DHT22;4771;48.726;9.006;2023-11-18T12:04:37;8.50;99.90
9466;DHT22;4771;48.726;9.006;2023-11-18T12:07:09;8.50;99.90
9466;DHT22;4771;48.726;9.006;2023-11-18T12:09:40;8.60;99.90
9466;DHT22;4771;48.726;9.006;2023-11-18T12:12:17;8.60;99.90
9466;DHT22;4771;48.726;9.006;2023-11-18T12:14:51;8.60;99.90
9466;DHT22;4771;48.726;9.006;2023-11-18T12:17:22;8.50;99.90
9466;DHT22;4771;48.726;9.006;2023-11-18T12:19:51;8.70;99.90
9466;DHT22;4771;48.726;9.006;2023-11-18T12:22:24;8.60;99.90
9466;DHT22;4771;48.726;9.006;2023-11-18T12:28:09;8.50;99.90
9466;DHT22;4771;48.726;9.006;2023-11-18T12:30:41;8.50;99.90
9466;DHT22;4771;48.726;9.006;2023-11-18T12:33:18;8.50;99.90
9466;DHT22;4771;48.726;9.006;2023-11-18T12:42:05;8.50;99.90
9466;DHT22;4771;48.726;9.006;2023-11-18T12:44:39;8.50;99.90
9466;DHT22;4771;48.726;9.006;2023-11-18T12:47:13;8.50;99.90
9466;DHT22;4771;48.726;9.006;2023-11-18T12:49:44;8.50;99.90
9466;DHT22;4771;48.726;9.006;2023-11-18T12:52:16;8.40;99.90
9466;DHT22;4771;48.726;9.006;2023-11-18T12:54:44;8.50;99.90
9466;DHT22;4771;48.726;9.006;2023-11-18T12:57:20;8.40;99.90
9466;DHT22;4771;48.726;9.006;2023-11-18T12:59:49;8.40;99.90
9466;DHT22;4771;48.726;9.006;2023-11-18T13:02:16;8.40;99.90
9466;DHT22;4771;48.726;9.006;2023-11-18T13:04:45;8.50;99.90
9466;DHT22;4771;48.726;9.006;2023-11-18T13:07:13;8.40;99.90
9466;DHT22;4771;48.726;9.006;2023-11-18T13:09:40;8.40;99.90
9466;DHT22;4771;48.726;9.006;2023-11-18T13:12:11;8.40;99.90
9466;DHT22;4771;48.726;9.006;2023-11-18T13:14:42;8.40;99.90
9466;DHT22;4771;48.726;9.006;2023-11-18T13:17:10;8.40;99.90
9466;DHT22;4771;48.726;9.006;2023-11-18T13:19:38;8.40;99.90
9466;DHT22;4771;48.726;9.006;2023-11-18T13:22:07;8.40;99.90
9466;DHT22;4771;48.726;9.006;2023-11-18T13:24:34;8.40;99.90
9466;DHT22;4771;48.726;9.006;2023-11-18T13:27:02;8.40;99.90
9466;DHT22;4771;48.726;9.006;2023-11-18T13:29:30;8.40;99.90
9466;DHT22;4771;48.726;9.006;2023-11-18T13:31:58;8.40;99.90
9466;DHT22;4771;48.726;9.006;2023-11-18T13:34:30;8.40;99.90
9466;DHT22;4771;48.726;9.006;2023-11-18T13:36:58;8.50;99.90
9466;DHT22;4771;48.726;9.006;2023-11-18T13:39:25;8.50;99.90
9466;DHT22;4771;48.726;9.006;2023-11-18T13:41:53;8.50;99.90
9466;DHT22;4771;48.726;9.006;2023-11-18T13:44:33;8.40;99.90
9466;DHT22;4771;48.726;9.006;2023-11-18T13:47:05;8.50;99.90
9466;DHT22;4771;48.726;9.006;2023-11-18T13:49:32;8.50;99.90
9466;DHT22;4771;48.726;9.006;2023-11-18T13:52:00;8.50;99.90
9466;DHT22;4771;48.726;9.006;2023-11-18T13:54:28;8.50;99.90
9466;DHT22;4771;48.726;9.006;2023-11-18T13:56:55;8.40;99.90
9466;DHT22;4771;48.726;9.006;2023-11-18T13:59:24;8.40;99.90
9466;DHT22;4771;48.726;9.006;2023-11-18T14:01:52;8.40;99.90
9466;DHT22;4771;48.726;9.006;2023-11-18T14:04:22;8.40;99.90
9466;DHT22;4771;48.726;9.006;2023-11-18T14:06:51;8.30;99.90
9466;DHT22;4771;48.726;9.006;2023-11-18T14:09:19;8.30;99.90
9466;DHT22;4771;48.726;9.006;2023-11-18T14:11:47;8.40;99.90
9466;DHT22;4771;48.726;9.006;2023-11-18T14:14:14;8.30;99.90
9466;DHT22;4771;48.726;9.006;2023-11-18T14:16:43;8.50;99.90
9466;DHT22;4771;48.726;9.006;2023-11-18T14:19:11;8.30;99.90
9466;DHT22;4771;48.726;9.006;2023-11-18T14:21:40;8.30;99.90
9466;DHT22;4771;48.726;9.006;2023-11-18T14:24:08;8.30;99.90
9466;DHT22;4771;48.726;9.006;2023-11-18T14:26:36;8.30;99.90
9466;DHT22;4771;48.726;9.006;2023-11-18T14:29:03;8.30;99.90
9466;DHT22;4771;48.726;9.006;2023-11-18T14:31:30;8.30;99.90
9466;DHT22;4771;48.726;9.006;2023-11-18T14:33:57;8.30;99.90
9466;DHT22;4771;48.726;9.006;2023-11-18T14:36:24;8.30;99.90
9466;DHT22;4771;48.726;9.006;2023-11-18T14:38:56;8.30;99.90
9466;DHT22;4771;48.726;9.006;2023-11-18T14:41:24;8.40;99.90
9466;DHT22;4771;48.726;9.006;2023-11-18T14:43:52;8.30;99.90
9466;DHT22;4771;48.726;9.006;2023-11-18T14:46:19;8.40;99.90
9466;DHT22;4771;48.726;9.006;2023-11-18T14:48:46;8.40;99.90
9466;DHT22;4771;48.726;9.006;2023-11-18T14:51:14;8.40;99.90
9466;DHT22;4771;48.726;9.006;2023-11-18T14:53:41;8.40;99.90
9466;DHT22;4771;48.726;9.006;2023-11-18T14:56:11;8.30;99.90
9466;DHT22;4771;48.726;9.006;2023-11-18T14:58:38;8.40;99.90
9466;DHT22;4771;48.726;9.006;2023-11-18T15:01:05;8.40;99.90
9466;DHT22;4771;48.726;9.006;2023-11-18T15:03:36;8.40;99.90
9466;DHT22;4771;48.726;9.006;2023-11-18T15:06:03;8.40;99.90
9466;DHT22;4771;48.726;9.006;2023-11-18T15:08:31;8.40;99.90
9466;DHT22;4771;48.726;9.006;2023-11-18T15:10:58;8.40;99.90
9466;DHT22;4771;48.726;9.006;2023-11-18T15:13:27;8.40;99.90
9466;DHT22;4771;48.726;9.006;2023-11-18T15:15:54;8.30;99.90
9466;DHT22;4771;48.726;9.006;2023-11-18T15:18:24;8.30;99.90
9466;DHT22;4771;48.726;9.006;2023-11-18T15:20:51;8.30;99.90
9466;DHT22;4771;48.726;9.006;2023-11-18T15:23:18;8.30;99.90
9466;DHT22;4771;48.726;9.006;2023-11-18T15:25:47;8.30;99.90
9466;DHT22;4771;48.726;9.006;2023-11-18T15:28:15;8.30;99.90
9466;DHT22;4771;48.726;9.006;2023-11-18T15:30:44;8.30;99.90
9466;DHT22;4771;48.726;9.006;2023-11-18T15:33:11;8.30;99.90
9466;DHT22;4771;48.726;9.006;2023-11-18T15:35:40;8.20;99.90
9466;DHT22;4771;48.726;9.006;2023-11-18T15:38:07;8.30;99.90
9466;DHT22;4771;48.726;9.006;2023-11-18T15:40:35;8.30;99.90
9466;DHT22;4771;48.726;9.006;2023-11-18T15:43:03;8.30;99.90
9466;DHT22;4771;48.726;9.006;2023-11-18T15:45:32;8.30;99.90
9466;DHT22;4771;48.726;9.006;2023-11-18T15:48:01;8.30;99.90
9466;DHT22;4771;48.726;9.006;2023-11-18T15:50:31;8.30;99.90
9466;DHT22;4771;48.726;9.006;2023-11-18T15:53:03;8.40;99.90
9466;DHT22;4771;48.726;9.006;2023-11-18T15:55:31;8.40;99.90
9466;DHT22;4771;48.726;9.006;2023-11-18T15:57:58;8.30;99.90
9466;DHT22;4771;48.726;9.006;2023-11-18T16:00:26;8.30;99.90
9466;DHT22;4771;48.726;9.006;2023-11-18T16:02:55;8.30;99.90
9466;DHT22;4771;48.726;9.006;2023-11-18T16:05:25;8.40;99.90
9466;DHT22;4771;48.726;9.006;2023-11-18T16:07:53;8.40;99.90
9466;DHT22;4771;48.726;9.006;2023-11-18T16:10:21;8.40;99.90
9466;DHT22;4771;48.726;9.006;2023-11-18T16:12:49;8.40;99.90
9466;DHT22;4771;48.726;9.006;2023-11-18T16:15:17;8.40;99.90
9466;DHT22;4771;48.726;9.006;2023-11-18T16:17:45;8.40;99.90
9466;DHT22;4771;48.726;9.006;2023-11-18T16:20:12;8.40;99.90
9466;DHT22;4771;48.726;9.006;2023-11-18T16:22:42;8.40;99.90
9466;DHT22;4771;48.726;9.006;2023-11-18T16:25:13;8.40;99.90
9466;DHT22;4771;48.726;9.006;2023-11-18T16:27:43;8.30;99.90
9466;DHT22;4771;48.726;9.006;2023-11-18T16:30:11;8.40;99.90
9466;DHT22;4771;48.726;9.006;2023-11-18T16:32:38;8.40;99.90
9466;DHT22;4771;48.726;9.006;2023-11-18T16:35:05;8.40;99.90
9466;DHT22;4771;48.726;9.006;2023-11-18T16:37:37;8.40;99.90